Time,TemperatureF,DewpointF,PressureIn,WindDirection,WindDirectionDegrees,WindSpeedMPH,WindSpeedGustMPH,Humidity,HourlyPrecipIn,Conditions,Clouds,dailyrainin,SolarRadiationWatts/m^2,SoftwareType,DateUTC
2013-06-13 00:01:00,71.0,25.0,-100.00,ENE,62,5.0,7.0,18,0.00,,,0.00,0.000000,,2013-06-13 07:01:00,
2013-06-13 00:11:00,71.0,25.0,-100.00,ENE,62,5.0,7.0,18,0.00,,,0.00,0.000000,,2013-06-13 07:11:00,
2013-06-13 00:22:00,71.0,25.0,-100.00,ENE,62,5.0,7.0,18,0.00,,,0.00,0.000000,,2013-06-13 07:22:00,
2013-06-13 00:33:00,71.0,25.0,-100.00,ENE,62,5.0,7.0,18,0.00,,,0.00,0.000000,,2013-06-13 07:33:00,
2013-06-13 01:01:00,68.0,25.0,-100.00,ENE,74,5.0,8.0,20,0.00,,,0.00,0.000000,,2013-06-13 08:01:00,
2013-06-13 01:11:00,68.0,25.0,-100.00,ENE,74,5.0,8.0,20,0.00,,,0.00,0.000000,,2013-06-13 08:11:00,
2013-06-13 01:22:00,68.0,25.0,-100.00,ENE,74,5.0,8.0,20,0.00,,,0.00,0.000000,,2013-06-13 08:22:00,
2013-06-13 01:32:00,68.0,25.0,-100.00,ENE,74,5.0,8.0,20,0.00,,,0.00,0.000000,,2013-06-13 08:32:00,
2013-06-13 02:01:00,68.0,27.0,-100.00,NNE,30,2.0,8.0,21,0.00,,,0.00,0.000000,,2013-06-13 09:01:00,
2013-06-13 02:11:00,68.0,27.0,-100.00,NNE,30,2.0,8.0,21,0.00,,,0.00,0.000000,,2013-06-13 09:11:00,
2013-06-13 02:22:00,68.0,27.0,-100.00,NNE,30,2.0,8.0,21,0.00,,,0.00,0.000000,,2013-06-13 09:22:00,
2013-06-13 02:32:00,68.0,27.0,-100.00,NNE,30,2.0,8.0,21,0.00,,,0.00,0.000000,,2013-06-13 09:32:00,
2013-06-13 03:01:00,67.0,27.0,-100.00,WNW,298,4.0,8.0,22,0.00,,,0.00,0.000000,,2013-06-13 10:01:00,
2013-06-13 03:11:00,67.0,27.0,-100.00,WNW,298,4.0,8.0,22,0.00,,,0.00,0.000000,,2013-06-13 10:11:00,
2013-06-13 03:22:00,67.0,27.0,-100.00,WNW,298,4.0,8.0,22,0.00,,,0.00,0.000000,,2013-06-13 10:22:00,
2013-06-13 03:33:00,67.0,27.0,-100.00,WNW,298,4.0,8.0,22,0.00,,,0.00,0.000000,,2013-06-13 10:33:00,
2013-06-13 04:01:00,65.0,26.0,-100.00,WNW,286,1.0,5.0,23,0.00,,,0.00,0.000000,,2013-06-13 11:01:00,
2013-06-13 04:11:00,65.0,26.0,-100.00,WNW,286,1.0,5.0,23,0.00,,,0.00,0.000000,,2013-06-13 11:11:00,
2013-06-13 04:23:00,65.0,26.0,-100.00,WNW,286,1.0,5.0,23,0.00,,,0.00,0.000000,,2013-06-13 11:23:00,
2013-06-13 04:32:00,65.0,26.0,-100.00,WNW,286,1.0,5.0,23,0.00,,,0.00,0.000000,,2013-06-13 11:32:00,
2013-06-13 05:01:00,67.0,27.0,-100.00,North,5,3.0,9.0,22,0.00,,,0.00,0.000000,,2013-06-13 12:01:00,
2013-06-13 05:11:00,67.0,27.0,-100.00,North,5,3.0,9.0,22,0.00,,,0.00,0.000000,,2013-06-13 12:11:00,
2013-06-13 05:22:00,67.0,27.0,-100.00,North,5,3.0,9.0,22,0.00,,,0.00,0.000000,,2013-06-13 12:22:00,
2013-06-13 05:34:00,67.0,27.0,-100.00,North,5,3.0,9.0,22,0.00,,,0.00,0.000000,,2013-06-13 12:34:00,
2013-06-13 06:01:00,66.0,28.0,-100.00,NNE,22,5.0,9.0,24,0.00,,,0.00,5.000000,,2013-06-13 13:01:00,
2013-06-13 06:11:00,66.0,28.0,-100.00,NNE,22,5.0,9.0,24,0.00,,,0.00,5.000000,,2013-06-13 13:11:00,
2013-06-13 06:21:00,66.0,28.0,-100.00,NNE,22,5.0,9.0,24,0.00,,,0.00,5.000000,,2013-06-13 13:21:00,
2013-06-13 06:32:00,66.0,28.0,-100.00,NNE,22,5.0,9.0,24,0.00,,,0.00,5.000000,,2013-06-13 13:32:00,
2013-06-13 07:02:00,71.0,30.0,-100.00,East,89,2.0,9.0,22,0.00,,,0.00,136.000000,,2013-06-13 14:02:00,
2013-06-13 07:11:00,71.0,30.0,-100.00,East,89,2.0,9.0,22,0.00,,,0.00,136.000000,,2013-06-13 14:11:00,
2013-06-13 07:22:00,71.0,30.0,-100.00,East,89,2.0,9.0,22,0.00,,,0.00,136.000000,,2013-06-13 14:22:00,
2013-06-13 07:33:00,71.0,30.0,-100.00,East,89,2.0,9.0,22,0.00,,,0.00,136.000000,,2013-06-13 14:33:00,
2013-06-13 08:01:00,78.0,35.0,-100.00,SSE,164,1.0,6.0,21,0.00,,,0.00,370.000000,,2013-06-13 15:01:00,
2013-06-13 08:12:00,78.0,35.0,-100.00,SSE,164,1.0,6.0,21,0.00,,,0.00,370.000000,,2013-06-13 15:12:00,
2013-06-13 08:21:00,78.0,35.0,-100.00,SSE,164,1.0,6.0,21,0.00,,,0.00,370.000000,,2013-06-13 15:21:00,
2013-06-13 08:33:00,78.0,35.0,-100.00,SSE,164,1.0,6.0,21,0.00,,,0.00,370.000000,,2013-06-13 15:33:00,
2013-06-13 09:01:00,78.0,37.0,-100.00,ESE,120,4.0,6.0,23,0.00,,,0.00,637.000000,,2013-06-13 16:01:00,
2013-06-13 09:11:00,78.0,37.0,-100.00,ESE,120,4.0,6.0,23,0.00,,,0.00,637.000000,,2013-06-13 16:11:00,
2013-06-13 09:22:00,78.0,37.0,-100.00,ESE,120,4.0,6.0,23,0.00,,,0.00,637.000000,,2013-06-13 16:22:00,
2013-06-13 09:33:00,78.0,37.0,-100.00,ESE,120,4.0,6.0,23,0.00,,,0.00,637.000000,,2013-06-13 16:33:00,
2013-06-13 10:02:00,77.0,40.0,-100.00,SE,131,5.0,7.0,27,0.00,,,0.00,875.000000,,2013-06-13 17:02:00,
2013-06-13 10:11:00,77.0,40.0,-100.00,SE,131,5.0,7.0,27,0.00,,,0.00,875.000000,,2013-06-13 17:11:00,
2013-06-13 10:24:00,77.0,40.0,-100.00,SE,131,5.0,7.0,27,0.00,,,0.00,875.000000,,2013-06-13 17:24:00,
2013-06-13 10:32:00,77.0,40.0,-100.00,SE,131,5.0,7.0,27,0.00,,,0.00,875.000000,,2013-06-13 17:32:00,
2013-06-13 11:02:00,80.0,42.0,-100.00,South,180,4.0,9.0,26,0.00,,,0.00,1062.000000,,2013-06-13 18:02:00,
2013-06-13 11:11:00,80.0,42.0,-100.00,South,180,4.0,9.0,26,0.00,,,0.00,1062.000000,,2013-06-13 18:11:00,
2013-06-13 11:22:00,80.0,42.0,-100.00,South,180,4.0,9.0,26,0.00,,,0.00,1062.000000,,2013-06-13 18:22:00,
2013-06-13 11:33:00,80.0,42.0,-100.00,South,180,4.0,9.0,26,0.00,,,0.00,1062.000000,,2013-06-13 18:33:00,
2013-06-13 12:01:00,84.0,39.0,-100.00,SSW,203,3.0,9.0,20,0.00,,,0.00,1177.000000,,2013-06-13 19:01:00,
2013-06-13 12:11:00,84.0,39.0,-100.00,SSW,203,3.0,9.0,20,0.00,,,0.00,1177.000000,,2013-06-13 19:11:00,
2013-06-13 12:22:00,84.0,39.0,-100.00,SSW,203,3.0,9.0,20,0.00,,,0.00,1177.000000,,2013-06-13 19:22:00,
2013-06-13 12:32:00,84.0,39.0,-100.00,SSW,203,3.0,9.0,20,0.00,,,0.00,1177.000000,,2013-06-13 19:32:00,
2013-06-13 13:01:00,84.0,39.0,-100.00,SW,231,4.0,10.0,20,0.00,,,0.00,1231.000000,,2013-06-13 20:01:00,
2013-06-13 13:11:00,84.0,39.0,-100.00,SW,231,4.0,10.0,20,0.00,,,0.00,1231.000000,,2013-06-13 20:11:00,
2013-06-13 13:22:00,84.0,39.0,-100.00,SW,231,4.0,10.0,20,0.00,,,0.00,1231.000000,,2013-06-13 20:22:00,
2013-06-13 13:32:00,84.0,39.0,-100.00,SW,231,4.0,10.0,20,0.00,,,0.00,1231.000000,,2013-06-13 20:32:00,
2013-06-13 14:01:00,86.0,39.0,-100.00,SW,231,5.0,11.0,19,0.00,,,0.00,1222.000000,,2013-06-13 21:01:00,
2013-06-13 14:11:00,86.0,39.0,-100.00,SW,231,5.0,11.0,19,0.00,,,0.00,1222.000000,,2013-06-13 21:11:00,
2013-06-13 14:22:00,86.0,39.0,-100.00,SW,231,5.0,11.0,19,0.00,,,0.00,1222.000000,,2013-06-13 21:22:00,
2013-06-13 14:34:00,86.0,39.0,-100.00,SW,231,5.0,11.0,19,0.00,,,0.00,1222.000000,,2013-06-13 21:34:00,
2013-06-13 15:01:00,87.0,38.0,-100.00,SW,234,7.0,14.0,18,0.00,,,0.00,1139.000000,,2013-06-13 22:01:00,
2013-06-13 15:11:00,87.0,38.0,-100.00,SW,234,7.0,14.0,18,0.00,,,0.00,1139.000000,,2013-06-13 22:11:00,
2013-06-13 15:22:00,87.0,38.0,-100.00,SW,234,7.0,14.0,18,0.00,,,0.00,1139.000000,,2013-06-13 22:22:00,
2013-06-13 15:32:00,87.0,38.0,-100.00,SW,234,7.0,14.0,18,0.00,,,0.00,1139.000000,,2013-06-13 22:32:00,
2013-06-13 16:01:00,84.0,36.0,-100.00,WSW,243,11.0,19.0,18,0.00,,,0.00,1002.000000,,2013-06-13 23:01:00,
2013-06-13 16:11:00,84.0,36.0,-100.00,WSW,243,11.0,19.0,18,0.00,,,0.00,1002.000000,,2013-06-13 23:11:00,
2013-06-13 16:22:00,84.0,36.0,-100.00,WSW,243,11.0,19.0,18,0.00,,,0.00,1002.000000,,2013-06-13 23:22:00,
2013-06-13 16:32:00,84.0,36.0,-100.00,WSW,243,11.0,19.0,18,0.00,,,0.00,1002.000000,,2013-06-13 23:32:00,
2013-06-13 17:01:00,83.0,36.0,-100.00,WSW,252,9.0,19.0,19,0.00,,,0.00,798.000000,,2013-06-14 00:01:00,
2013-06-13 17:11:00,83.0,36.0,-100.00,WSW,252,9.0,19.0,19,0.00,,,0.00,798.000000,,2013-06-14 00:11:00,
2013-06-13 17:22:00,83.0,36.0,-100.00,WSW,252,9.0,19.0,19,0.00,,,0.00,798.000000,,2013-06-14 00:22:00,
2013-06-13 17:33:00,83.0,36.0,-100.00,WSW,252,9.0,19.0,19,0.00,,,0.00,798.000000,,2013-06-14 00:33:00,
2013-06-13 18:01:00,81.0,37.0,-100.00,WSW,255,7.0,15.0,21,0.00,,,0.00,547.000000,,2013-06-14 01:01:00,
2013-06-13 18:11:00,81.0,37.0,-100.00,WSW,255,7.0,15.0,21,0.00,,,0.00,547.000000,,2013-06-14 01:11:00,
2013-06-13 18:22:00,81.0,37.0,-100.00,WSW,255,7.0,15.0,21,0.00,,,0.00,547.000000,,2013-06-14 01:22:00,
2013-06-13 18:32:00,81.0,37.0,-100.00,WSW,255,7.0,15.0,21,0.00,,,0.00,547.000000,,2013-06-14 01:32:00,
2013-06-13 19:02:00,75.0,37.0,-100.00,West,263,5.0,12.0,25,0.00,,,0.00,183.000000,,2013-06-14 02:02:00,
2013-06-13 19:11:00,75.0,37.0,-100.00,West,263,5.0,12.0,25,0.00,,,0.00,183.000000,,2013-06-14 02:11:00,
2013-06-13 19:22:00,75.0,37.0,-100.00,West,263,5.0,12.0,25,0.00,,,0.00,183.000000,,2013-06-14 02:22:00,
2013-06-13 19:32:00,75.0,37.0,-100.00,West,263,5.0,12.0,25,0.00,,,0.00,183.000000,,2013-06-14 02:32:00,
2013-06-13 19:52:00,69.0,36.0,-100.00,West,272,8.0,14.0,30,0.00,,,0.00,30.000000,,2013-06-14 02:52:00,
2013-06-13 20:02:00,69.0,36.0,-100.00,West,272,8.0,14.0,30,0.00,,,0.00,30.000000,,2013-06-14 03:02:00,
2013-06-13 20:11:00,69.0,36.0,-100.00,West,272,8.0,14.0,30,0.00,,,0.00,30.000000,,2013-06-14 03:11:00,
2013-06-13 20:22:00,69.0,36.0,-100.00,West,272,8.0,14.0,30,0.00,,,0.00,30.000000,,2013-06-14 03:22:00,
2013-06-13 20:34:00,69.0,36.0,-100.00,West,272,8.0,14.0,30,0.00,,,0.00,30.000000,,2013-06-14 03:34:00,
2013-06-13 21:01:00,69.0,37.0,-100.00,WNW,294,10.0,16.0,31,0.00,,,0.00,0.000000,,2013-06-14 04:01:00,
2013-06-13 21:12:00,69.0,37.0,-100.00,WNW,294,10.0,16.0,31,0.00,,,0.00,0.000000,,2013-06-14 04:12:00,
2013-06-13 21:22:00,69.0,37.0,-100.00,WNW,294,10.0,16.0,31,0.00,,,0.00,0.000000,,2013-06-14 04:22:00,
2013-06-13 21:33:00,69.0,37.0,-100.00,WNW,294,10.0,16.0,31,0.00,,,0.00,0.000000,,2013-06-14 04:33:00,
2013-06-13 22:02:00,67.0,38.0,-100.00,WNW,291,4.0,15.0,34,0.00,,,0.00,0.000000,,2013-06-14 05:02:00,
2013-06-13 22:11:00,67.0,38.0,-100.00,WNW,291,4.0,15.0,34,0.00,,,0.00,0.000000,,2013-06-14 05:11:00,
2013-06-13 22:22:00,67.0,38.0,-100.00,WNW,291,4.0,15.0,34,0.00,,,0.00,0.000000,,2013-06-14 05:22:00,
2013-06-13 22:33:00,67.0,38.0,-100.00,WNW,291,4.0,15.0,34,0.00,,,0.00,0.000000,,2013-06-14 05:33:00,
2013-06-13 23:02:00,67.0,37.0,-100.00,NE,38,5.0,10.0,33,0.00,,,-99.99,0.000000,,2013-06-14 06:02:00,
2013-06-13 23:12:00,67.0,37.0,-100.00,NE,38,5.0,10.0,33,0.00,,,-99.99,0.000000,,2013-06-14 06:12:00,
2013-06-13 23:22:00,67.0,37.0,-100.00,NE,38,5.0,10.0,33,0.00,,,-99.99,0.000000,,2013-06-14 06:22:00,
2013-06-13 23:33:00,67.0,37.0,-100.00,NE,38,5.0,10.0,33,0.00,,,-99.99,0.000000,,2013-06-14 06:33:00,